createdAt,value
2022-12-23T00:01:56.625Z,9.29
2022-12-23T00:04:23.182Z,9.27
2022-12-23T00:06:49.604Z,9.33
2022-12-23T00:09:18.956Z,9.34
2022-12-23T00:11:45.390Z,9.35
2022-12-23T00:14:18.189Z,9.39
2022-12-23T00:16:47.328Z,9.32
2022-12-23T00:19:16.916Z,9.27
2022-12-23T00:21:43.462Z,9.35
2022-12-23T00:24:13.393Z,9.51
2022-12-23T00:26:43.081Z,9.37
2022-12-23T00:29:09.724Z,9.47
2022-12-23T00:31:36.127Z,9.53
2022-12-23T00:34:02.488Z,9.39
2022-12-23T00:36:28.833Z,9.37
2022-12-23T00:38:57.844Z,9.44
2022-12-23T00:41:25.374Z,9.51
2022-12-23T00:43:57.486Z,9.51
2022-12-23T00:46:25.715Z,9.40
2022-12-23T00:48:52.045Z,9.52
2022-12-23T00:51:25.493Z,9.53
2022-12-23T00:53:52.035Z,9.53
2022-12-23T00:56:18.604Z,9.62
2022-12-23T00:58:51.221Z,9.65
2022-12-23T01:01:17.631Z,9.74
2022-12-23T01:03:49.984Z,9.61
2022-12-23T01:06:18.119Z,9.63
2022-12-23T01:08:52.092Z,9.65
2022-12-23T01:11:39.349Z,9.76
2022-12-23T01:14:06.862Z,9.92
2022-12-23T01:16:33.214Z,9.79
2022-12-23T01:19:06.997Z,9.80
2022-12-23T01:21:34.346Z,9.84
2022-12-23T01:24:03.069Z,9.83
2022-12-23T01:26:29.748Z,9.88
2022-12-23T01:29:00.980Z,9.88
2022-12-23T01:31:35.945Z,9.86
2022-12-23T01:34:02.286Z,9.88
2022-12-23T01:36:28.595Z,9.97
2022-12-23T01:38:54.887Z,9.94
2022-12-23T01:41:21.229Z,9.94
2022-12-23T01:43:50.517Z,9.83
2022-12-23T01:46:16.913Z,9.86
2022-12-23T01:48:43.343Z,9.90
2022-12-23T01:51:09.788Z,9.86
2022-12-23T01:53:38.334Z,9.93
2022-12-23T01:56:06.716Z,9.82
2022-12-23T01:58:36.226Z,9.87
2022-12-23T02:01:02.613Z,9.86
2022-12-23T02:03:29.066Z,9.87
2022-12-23T02:08:35.732Z,10.01
2022-12-23T02:11:02.093Z,10.02
2022-12-23T02:13:28.505Z,10.05
2022-12-23T02:15:55.167Z,10.07
2022-12-23T02:18:23.154Z,10.00
2022-12-23T02:20:49.536Z,10.05
2022-12-23T02:23:21.752Z,10.06
2022-12-23T02:25:48.056Z,10.08
2022-12-23T02:28:14.424Z,10.15
2022-12-23T02:30:40.852Z,10.15
2022-12-23T02:33:07.202Z,10.21
2022-12-23T02:35:33.645Z,10.13
2022-12-23T02:37:59.966Z,10.19
2022-12-23T02:40:26.281Z,10.27
2022-12-23T02:42:52.669Z,10.32
2022-12-23T02:45:19.340Z,10.40
2022-12-23T02:47:45.659Z,10.31
2022-12-23T02:50:11.984Z,10.29
2022-12-23T02:52:40.862Z,10.34
2022-12-23T02:55:10.319Z,10.30
2022-12-23T02:57:39.922Z,10.35
2022-12-23T03:00:06.234Z,10.28
2022-12-23T03:02:32.653Z,10.24
2022-12-23T03:05:09.721Z,10.29
2022-12-23T03:07:36.062Z,10.33
2022-12-23T03:10:02.369Z,10.40
2022-12-23T03:12:31.749Z,10.54
2022-12-23T03:14:58.188Z,10.45
2022-12-23T03:17:26.919Z,10.36
2022-12-23T03:19:56.099Z,10.45
2022-12-23T03:25:10.600Z,10.49
2022-12-23T03:27:37.070Z,10.47
2022-12-23T03:30:03.450Z,10.49
2022-12-23T03:32:29.746Z,10.61
2022-12-23T03:34:56.088Z,10.63
2022-12-23T03:37:26.716Z,10.55
2022-12-23T03:39:53.045Z,10.48
2022-12-23T03:42:19.379Z,10.68
2022-12-23T03:45:10.809Z,10.66
2022-12-23T03:47:32.073Z,10.77
2022-12-23T03:49:58.408Z,10.65
2022-12-23T03:52:34.847Z,10.68
2022-12-23T03:55:01.198Z,10.80
2022-12-23T04:00:13.940Z,10.92
2022-12-23T04:02:40.350Z,10.86
2022-12-23T04:05:06.727Z,10.90
2022-12-23T04:07:33.083Z,10.83
2022-12-23T04:09:59.388Z,10.95
2022-12-23T04:12:25.822Z,10.97
2022-12-23T04:14:52.383Z,10.74
2022-12-23T04:17:20.786Z,10.84
2022-12-23T04:19:47.520Z,10.82
2022-12-23T04:22:13.892Z,10.87
2022-12-23T04:24:50.801Z,10.77
2022-12-23T04:29:58.750Z,10.74
2022-12-23T04:32:25.129Z,10.87
2022-12-23T04:35:03.746Z,10.96
2022-12-23T04:37:30.094Z,10.90
2022-12-23T04:39:56.436Z,11.00
2022-12-23T04:42:25.563Z,11.02
2022-12-23T04:44:54.340Z,10.90
2022-12-23T04:47:20.726Z,11.08
2022-12-23T04:49:47.047Z,10.93
2022-12-23T04:52:13.429Z,10.89
2022-12-23T04:54:45.822Z,10.80
2022-12-23T04:57:12.670Z,10.85
2022-12-23T04:59:38.984Z,10.78
2022-12-23T05:02:05.499Z,10.85
2022-12-23T05:04:31.977Z,10.83
2022-12-23T05:06:58.324Z,10.81
2022-12-23T05:09:24.636Z,10.70
2022-12-23T05:11:50.952Z,10.73
2022-12-23T05:14:17.264Z,10.70
2022-12-23T05:16:43.663Z,10.71
2022-12-23T05:19:10.179Z,10.71
2022-12-23T05:21:36.509Z,10.69
2022-12-23T05:24:02.845Z,10.74
2022-12-23T05:26:30.374Z,10.78
2022-12-23T05:29:01.149Z,10.80
2022-12-23T05:31:32.162Z,10.80
2022-12-23T05:34:05.771Z,10.85
2022-12-23T05:36:32.916Z,10.86
2022-12-23T05:39:01.801Z,10.87
2022-12-23T05:41:28.166Z,10.87
2022-12-23T05:43:54.574Z,10.92
2022-12-23T05:46:26.634Z,10.79
2022-12-23T05:48:53.589Z,10.86
2022-12-23T05:51:21.242Z,10.81
2022-12-23T05:53:48.773Z,10.81
2022-12-23T05:56:17.925Z,10.72
2022-12-23T05:58:44.400Z,10.87
2022-12-23T06:01:10.820Z,10.79
2022-12-23T06:03:37.452Z,10.91
2022-12-23T06:06:03.947Z,10.87
2022-12-23T06:08:30.395Z,10.85
2022-12-23T06:10:56.771Z,10.98
2022-12-23T06:13:23.071Z,11.06
2022-12-23T06:15:50.554Z,10.97
2022-12-23T06:18:23.047Z,11.19
2022-12-23T06:20:51.162Z,11.09
2022-12-23T06:23:17.646Z,11.02
2022-12-23T06:25:44.346Z,10.98
2022-12-23T06:28:10.756Z,10.99
2022-12-23T06:30:37.087Z,11.07
2022-12-23T06:33:03.473Z,11.02
2022-12-23T06:35:29.947Z,11.06
2022-12-23T06:37:59.297Z,11.04
2022-12-23T06:40:25.658Z,10.96
2022-12-23T06:42:52.011Z,11.09
2022-12-23T06:45:18.368Z,11.04
2022-12-23T06:47:44.712Z,10.92
2022-12-23T06:50:19.795Z,11.11
2022-12-23T06:52:46.208Z,11.03
2022-12-23T06:55:12.544Z,10.91
2022-12-23T06:57:38.922Z,10.93
2022-12-23T07:00:12.158Z,10.95
2022-12-23T07:02:38.954Z,10.98
2022-12-23T07:05:05.362Z,11.12
2022-12-23T07:07:31.727Z,11.04
2022-12-23T07:09:58.123Z,11.11
2022-12-23T07:12:24.451Z,10.99
2022-12-23T07:14:50.781Z,11.10
2022-12-23T07:17:17.082Z,11.07
2022-12-23T07:19:43.385Z,11.23
2022-12-23T07:22:09.711Z,11.23
2022-12-23T07:24:36.017Z,11.19
2022-12-23T07:27:02.419Z,11.08
2022-12-23T07:29:28.761Z,11.12
2022-12-23T07:31:55.139Z,11.04
2022-12-23T07:34:21.517Z,11.12
2022-12-23T07:36:47.840Z,10.97
2022-12-23T07:39:14.181Z,11.13
2022-12-23T07:41:40.494Z,11.17
2022-12-23T07:44:06.827Z,11.24
2022-12-23T07:46:33.230Z,11.29
2022-12-23T07:49:01.366Z,11.16
2022-12-23T07:51:27.745Z,11.25
2022-12-23T07:53:54.156Z,11.23
2022-12-23T07:56:20.508Z,11.21
2022-12-23T07:58:46.839Z,11.25
2022-12-23T08:01:13.198Z,11.30
2022-12-23T08:03:39.682Z,11.27
2022-12-23T08:06:06.240Z,11.33
2022-12-23T08:08:32.699Z,11.34
2022-12-23T08:10:59.036Z,11.35
2022-12-23T08:13:25.473Z,11.25
2022-12-23T08:15:51.807Z,11.28
2022-12-23T08:18:18.110Z,11.26
2022-12-23T08:20:47.412Z,11.29
2022-12-23T08:23:13.864Z,11.49
2022-12-23T08:25:40.219Z,11.24
2022-12-23T08:28:06.547Z,11.27
2022-12-23T08:30:32.894Z,11.31
2022-12-23T08:32:59.274Z,11.25
2022-12-23T08:35:25.639Z,11.29
2022-12-23T08:37:52.055Z,11.41
2022-12-23T08:40:18.535Z,11.49
2022-12-23T08:42:44.892Z,11.58
2022-12-23T08:45:11.201Z,11.47
2022-12-23T08:47:37.590Z,11.58
2022-12-23T08:50:03.955Z,11.75
2022-12-23T08:52:30.270Z,11.77
2022-12-23T08:54:56.664Z,11.84
2022-12-23T08:57:22.983Z,11.82
2022-12-23T08:59:49.277Z,11.89
2022-12-23T09:02:15.688Z,11.83
2022-12-23T09:04:42.167Z,11.94
2022-12-23T09:07:08.474Z,11.83
2022-12-23T09:09:34.802Z,11.92
2022-12-23T09:12:01.159Z,11.94
2022-12-23T09:14:27.466Z,11.88
2022-12-23T09:16:53.796Z,11.79
2022-12-23T09:19:20.171Z,11.69
2022-12-23T09:21:46.510Z,11.90
2022-12-23T09:24:13.270Z,11.70
2022-12-23T09:26:39.886Z,11.65
2022-12-23T09:29:06.201Z,11.48
2022-12-23T09:31:36.722Z,11.66
2022-12-23T09:34:04.211Z,11.46
2022-12-23T09:36:30.684Z,11.48
2022-12-23T09:38:56.991Z,11.59
2022-12-23T09:41:23.328Z,11.63
2022-12-23T09:43:49.674Z,11.60
2022-12-23T09:46:18.500Z,11.67
2022-12-23T09:48:44.869Z,11.65
2022-12-23T09:51:11.158Z,11.72
2022-12-23T09:53:37.471Z,11.68
2022-12-23T09:56:04.271Z,11.80
2022-12-23T09:58:33.084Z,11.82
2022-12-23T10:01:02.424Z,11.84
2022-12-23T10:03:31.491Z,11.84
2022-12-23T10:05:58.056Z,11.87
2022-12-23T10:08:29.760Z,11.77
2022-12-23T10:10:57.677Z,11.85
2022-12-23T10:13:24.021Z,11.95
2022-12-23T10:15:50.367Z,11.90
2022-12-23T10:18:16.896Z,11.85
2022-12-23T10:20:46.006Z,11.81
2022-12-23T10:23:15.157Z,11.85
2022-12-23T10:25:41.507Z,11.84
2022-12-23T10:28:07.876Z,11.82
2022-12-23T10:31:05.367Z,11.81
2022-12-23T10:33:20.479Z,11.68
2022-12-23T10:35:54.366Z,11.67
2022-12-23T10:38:21.768Z,11.70
2022-12-23T10:40:48.111Z,11.74
2022-12-23T10:43:19.025Z,11.72
2022-12-23T10:45:47.798Z,11.71
2022-12-23T10:48:14.531Z,11.62
2022-12-23T10:50:43.850Z,11.74
2022-12-23T10:53:10.221Z,11.66
2022-12-23T10:55:36.787Z,11.83
2022-12-23T10:58:05.966Z,11.92
2022-12-23T11:00:32.794Z,11.91
2022-12-23T11:02:59.258Z,11.95
2022-12-23T11:05:25.678Z,11.85
2022-12-23T11:07:54.415Z,11.99
2022-12-23T11:10:20.899Z,11.88
2022-12-23T11:15:33.359Z,11.75
2022-12-23T11:17:59.667Z,11.91
2022-12-23T11:20:25.968Z,11.82
2022-12-23T11:22:52.373Z,11.83
2022-12-23T11:25:18.776Z,11.82
2022-12-23T11:27:45.082Z,11.94
2022-12-23T11:30:14.187Z,11.95
2022-12-23T11:32:40.536Z,11.76
2022-12-23T11:35:07.661Z,11.91
2022-12-23T11:37:36.327Z,11.91
2022-12-23T11:40:02.968Z,11.67
2022-12-23T11:42:29.262Z,11.70
2022-12-23T11:44:55.660Z,11.82
2022-12-23T11:47:22.068Z,11.73
2022-12-23T11:49:48.460Z,11.76
2022-12-23T11:52:14.822Z,11.72
2022-12-23T11:54:41.130Z,11.82
2022-12-23T11:57:07.815Z,11.67
2022-12-23T11:59:34.232Z,11.77
2022-12-23T12:02:00.636Z,11.76
2022-12-23T12:04:26.996Z,11.75
2022-12-23T12:07:00.413Z,11.79
2022-12-23T12:09:26.719Z,11.90
2022-12-23T12:12:00.325Z,11.82
2022-12-23T12:14:26.736Z,11.76
2022-12-23T12:16:53.768Z,11.81
2022-12-23T12:19:20.183Z,11.75
2022-12-23T12:21:46.496Z,11.77
2022-12-23T12:24:18.945Z,11.59
2022-12-23T12:26:46.134Z,11.63
2022-12-23T12:29:15.492Z,11.70
2022-12-23T12:31:41.890Z,11.87
2022-12-23T12:34:08.380Z,11.74
2022-12-23T12:36:34.827Z,11.69
2022-12-23T12:39:01.172Z,11.58
2022-12-23T12:41:27.473Z,11.81
2022-12-23T12:43:53.796Z,11.68
2022-12-23T12:46:20.156Z,11.67
2022-12-23T12:48:46.561Z,11.66
2022-12-23T12:51:15.689Z,11.65
2022-12-23T12:53:46.364Z,11.60
2022-12-23T12:56:17.585Z,11.64
2022-12-23T12:58:43.901Z,11.67
2022-12-23T13:01:10.238Z,11.55
2022-12-23T13:03:36.589Z,11.56
2022-12-23T13:06:06.058Z,11.65
2022-12-23T13:08:35.603Z,11.53
2022-12-23T13:11:01.942Z,11.70
2022-12-23T13:13:28.324Z,11.67
2022-12-23T13:15:54.854Z,11.58
2022-12-23T13:18:21.175Z,11.60
2022-12-23T13:20:47.525Z,11.65
2022-12-23T13:26:00.358Z,11.67
2022-12-23T13:28:26.645Z,11.56
2022-12-23T13:31:03.406Z,11.59
2022-12-23T13:33:29.922Z,11.56
2022-12-23T13:36:04.935Z,11.59
2022-12-23T13:38:32.481Z,11.55
2022-12-23T13:40:58.772Z,11.55
2022-12-23T13:43:25.062Z,11.56
2022-12-23T13:45:51.428Z,11.49
2022-12-23T13:48:17.817Z,11.62
2022-12-23T13:50:51.269Z,11.52
2022-12-23T13:53:20.046Z,11.59
2022-12-23T13:55:48.690Z,11.50
2022-12-23T13:58:18.089Z,11.50
2022-12-23T14:00:46.374Z,11.50
2022-12-23T14:03:15.743Z,11.53
2022-12-23T14:05:53.935Z,11.51
2022-12-23T14:08:28.908Z,11.61
2022-12-23T14:11:02.802Z,11.61
2022-12-23T14:13:36.258Z,11.72
2022-12-23T14:16:06.329Z,11.85
2022-12-23T14:18:32.789Z,11.67
2022-12-23T14:20:59.190Z,11.62
2022-12-23T14:23:27.296Z,11.64
2022-12-23T14:25:54.634Z,11.72
2022-12-23T14:28:23.467Z,11.78
2022-12-23T14:30:53.924Z,11.78
2022-12-23T14:33:22.252Z,11.98
2022-12-23T14:35:54.213Z,11.81
2022-12-23T14:38:20.812Z,11.75
2022-12-23T14:40:47.179Z,11.75
2022-12-23T14:43:16.698Z,11.81
2022-12-23T14:45:43.122Z,11.71
2022-12-23T14:48:23.391Z,11.76
2022-12-23T14:50:49.712Z,11.77
2022-12-23T14:53:16.012Z,11.70
2022-12-23T14:55:42.388Z,11.67
2022-12-23T14:58:11.620Z,11.80
2022-12-23T15:00:40.730Z,11.73
2022-12-23T15:03:09.648Z,11.73
2022-12-23T15:05:36.101Z,11.77
2022-12-23T15:08:03.282Z,11.72
2022-12-23T15:10:29.644Z,11.74
2022-12-23T15:12:58.492Z,11.73
2022-12-23T15:15:24.803Z,11.90
2022-12-23T15:17:51.386Z,11.91
2022-12-23T15:20:17.851Z,11.74
2022-12-23T15:22:44.201Z,11.79
2022-12-23T15:25:10.530Z,11.80
2022-12-23T15:27:36.874Z,11.77
2022-12-23T15:30:03.311Z,11.82
2022-12-23T15:35:17.354Z,11.66
2022-12-23T15:37:49.767Z,11.77
2022-12-23T15:40:23.539Z,11.79
2022-12-23T15:42:49.884Z,11.84
2022-12-23T15:45:16.316Z,11.87
2022-12-23T15:47:42.704Z,11.83
2022-12-23T15:50:11.878Z,11.75
2022-12-23T15:52:38.225Z,11.80
2022-12-23T15:55:04.625Z,11.90
2022-12-23T15:57:31.019Z,11.78
2022-12-23T15:59:57.342Z,11.83
2022-12-23T16:05:10.546Z,11.81
2022-12-23T16:07:37.092Z,11.77
2022-12-23T16:10:03.453Z,11.94
2022-12-23T16:12:30.000Z,12.12
2022-12-23T16:14:56.293Z,12.00
2022-12-23T16:17:22.671Z,11.98
2022-12-23T16:19:49.015Z,11.91
2022-12-23T16:22:15.329Z,11.84
2022-12-23T16:24:41.636Z,11.85
2022-12-23T16:27:10.706Z,11.79
2022-12-23T16:29:37.075Z,11.70
2022-12-23T16:32:03.473Z,11.74
2022-12-23T16:34:29.865Z,11.64
2022-12-23T16:36:56.175Z,11.67
2022-12-23T16:39:22.522Z,11.72
2022-12-23T16:41:49.043Z,12.06
2022-12-23T16:44:15.383Z,12.09
2022-12-23T16:46:41.910Z,12.09
2022-12-23T16:49:08.254Z,11.72
2022-12-23T16:51:34.587Z,11.74
2022-12-23T16:54:00.952Z,11.75
2022-12-23T16:56:27.345Z,11.66
2022-12-23T16:58:53.666Z,11.78
2022-12-23T17:01:20.069Z,11.68
2022-12-23T17:03:46.611Z,11.69
2022-12-23T17:06:12.904Z,11.70
2022-12-23T17:08:39.239Z,11.83
2022-12-23T17:11:07.613Z,11.82
2022-12-23T17:13:33.993Z,11.69
2022-12-23T17:16:00.395Z,11.81
2022-12-23T17:18:26.828Z,11.88
2022-12-23T17:20:53.139Z,11.81
2022-12-23T17:23:19.556Z,11.81
2022-12-23T17:25:46.449Z,11.71
2022-12-23T17:28:12.789Z,11.81
2022-12-23T17:30:39.123Z,11.80
2022-12-23T17:33:05.465Z,11.90
2022-12-23T17:35:31.756Z,11.83
2022-12-23T17:37:58.109Z,11.78
2022-12-23T17:40:24.447Z,11.82
2022-12-23T17:42:50.778Z,11.73
2022-12-23T17:45:17.099Z,11.87
2022-12-23T17:47:43.486Z,11.89
2022-12-23T17:50:09.807Z,11.89
2022-12-23T17:52:36.244Z,12.12
2022-12-23T17:55:02.810Z,12.11
2022-12-23T17:57:29.155Z,11.86
2022-12-23T17:59:55.524Z,11.77
2022-12-23T18:02:22.008Z,11.78
2022-12-23T18:04:48.400Z,11.68
2022-12-23T18:07:14.810Z,11.72
2022-12-23T18:09:41.445Z,11.80
2022-12-23T18:12:07.775Z,11.71
2022-12-23T18:14:34.122Z,11.79
2022-12-23T18:17:00.569Z,11.78
2022-12-23T18:19:27.002Z,11.96
2022-12-23T18:21:53.341Z,11.91
2022-12-23T18:24:19.685Z,12.20
2022-12-23T18:26:46.023Z,12.31
2022-12-23T18:29:12.395Z,12.23
2022-12-23T18:31:38.780Z,12.14
2022-12-23T18:34:05.141Z,12.03
2022-12-23T18:36:31.568Z,11.92
2022-12-23T18:38:58.413Z,12.05
2022-12-23T18:41:24.787Z,11.96
2022-12-23T18:43:51.156Z,11.87
2022-12-23T18:46:17.589Z,11.86
2022-12-23T18:48:44.094Z,11.84
2022-12-23T18:51:12.368Z,11.80
2022-12-23T18:53:38.773Z,11.83
2022-12-23T18:56:05.145Z,11.85
2022-12-23T18:58:31.554Z,11.84
2022-12-23T19:01:00.746Z,11.72
2022-12-23T19:03:27.115Z,11.88
2022-12-23T19:05:53.522Z,11.96
2022-12-23T19:08:25.845Z,12.10
2022-12-23T19:10:53.266Z,11.91
2022-12-23T19:13:19.598Z,11.85
2022-12-23T19:15:46.078Z,11.81
2022-12-23T19:18:12.420Z,11.75
2022-12-23T19:20:39.993Z,11.86
2022-12-23T19:23:07.677Z,11.84
2022-12-23T19:25:34.102Z,11.83
2022-12-23T19:28:00.464Z,11.83
2022-12-23T19:30:26.801Z,12.03
2022-12-23T19:33:01.562Z,11.94
2022-12-23T19:35:27.982Z,12.01
2022-12-23T19:37:54.349Z,11.74
2022-12-23T19:40:20.703Z,11.90
2022-12-23T19:42:47.048Z,11.74
2022-12-23T19:45:14.647Z,11.62
2022-12-23T19:47:41.055Z,11.72
2022-12-23T19:50:07.435Z,11.58
2022-12-23T19:52:35.059Z,11.63
2022-12-23T19:55:01.413Z,11.82
2022-12-23T19:57:27.846Z,12.11
2022-12-23T19:59:54.228Z,12.50
2022-12-23T20:02:20.667Z,12.78
2022-12-23T20:04:47.113Z,12.85
2022-12-23T20:07:13.433Z,12.45
2022-12-23T20:09:39.744Z,12.25
2022-12-23T20:12:06.178Z,11.93
2022-12-23T20:14:34.433Z,11.87
2022-12-23T20:17:00.935Z,11.77
2022-12-23T20:19:27.256Z,11.79
2022-12-23T20:21:53.628Z,11.78
2022-12-23T20:24:19.955Z,11.92
2022-12-23T20:26:46.280Z,12.06
2022-12-23T20:29:12.627Z,11.90
2022-12-23T20:31:39.028Z,11.90
2022-12-23T20:34:05.432Z,11.90
2022-12-23T20:36:31.802Z,11.85
2022-12-23T20:38:58.151Z,11.98
2022-12-23T20:41:24.506Z,11.96
2022-12-23T20:44:23.288Z,11.79
2022-12-23T20:46:37.157Z,12.15
2022-12-23T20:49:03.568Z,11.94
2022-12-23T20:51:29.916Z,12.04
2022-12-23T20:53:56.253Z,11.93
2022-12-23T20:56:22.597Z,11.93
2022-12-23T20:58:51.684Z,11.70
2022-12-23T21:01:18.074Z,11.72
2022-12-23T21:03:46.390Z,11.74
2022-12-23T21:06:12.861Z,11.89
2022-12-23T21:08:39.425Z,12.00
2022-12-23T21:11:05.773Z,11.80
2022-12-23T21:13:32.120Z,12.03
2022-12-23T21:15:58.473Z,11.99
2022-12-23T21:18:24.795Z,11.95
2022-12-23T21:20:51.097Z,11.84
2022-12-23T21:23:17.511Z,12.00
2022-12-23T21:25:43.864Z,12.20
2022-12-23T21:28:10.207Z,11.98
2022-12-23T21:30:36.561Z,11.84
2022-12-23T21:33:02.866Z,11.91
2022-12-23T21:35:29.336Z,11.90
2022-12-23T21:37:55.682Z,11.98
2022-12-23T21:40:22.003Z,11.86
2022-12-23T21:42:48.419Z,12.00
2022-12-23T21:45:14.927Z,12.06
2022-12-23T21:47:41.401Z,12.09
2022-12-23T21:50:08.350Z,11.87
2022-12-23T21:52:34.673Z,11.90
2022-12-23T21:55:01.040Z,12.00
2022-12-23T21:57:27.330Z,11.87
2022-12-23T21:59:53.677Z,11.89
2022-12-23T22:02:20.291Z,12.06
2022-12-23T22:04:46.607Z,11.96
2022-12-23T22:07:13.052Z,12.04
2022-12-23T22:09:39.357Z,12.10
2022-12-23T22:12:05.752Z,12.18
2022-12-23T22:14:32.149Z,12.31
2022-12-23T22:16:58.627Z,12.01
2022-12-23T22:19:24.998Z,12.36
2022-12-23T22:21:51.355Z,12.27
2022-12-23T22:24:17.703Z,11.95
2022-12-23T22:26:44.026Z,12.18
2022-12-23T22:29:10.420Z,12.35
2022-12-23T22:31:36.829Z,12.15
2022-12-23T22:34:03.191Z,12.35
2022-12-23T22:36:29.687Z,12.40
2022-12-23T22:38:56.080Z,12.75
2022-12-23T22:41:22.447Z,12.27
2022-12-23T22:43:48.938Z,12.59
2022-12-23T22:46:15.461Z,12.57
2022-12-23T22:48:42.023Z,12.78
2022-12-23T22:51:08.635Z,13.30
2022-12-23T22:53:35.041Z,13.66
2022-12-23T22:56:01.394Z,13.52
2022-12-23T22:58:27.791Z,13.36
2022-12-23T23:00:54.179Z,13.66
2022-12-23T23:03:20.514Z,13.08
2022-12-23T23:05:46.941Z,13.43
2022-12-23T23:08:13.319Z,13.71
2022-12-23T23:10:39.627Z,13.16
2022-12-23T23:13:06.062Z,12.71
2022-12-23T23:15:32.365Z,12.46
2022-12-23T23:17:58.749Z,12.64
2022-12-23T23:20:25.102Z,12.43
2022-12-23T23:22:51.427Z,12.53
2022-12-23T23:25:17.719Z,12.52
2022-12-23T23:27:44.051Z,12.75
2022-12-23T23:30:10.387Z,12.65
2022-12-23T23:32:36.745Z,12.69
2022-12-23T23:35:10.356Z,12.47
2022-12-23T23:37:37.174Z,12.59
2022-12-23T23:40:03.542Z,12.66
2022-12-23T23:42:29.916Z,12.65
2022-12-23T23:44:56.230Z,12.52
2022-12-23T23:47:22.640Z,12.40
2022-12-23T23:49:48.947Z,12.32
2022-12-23T23:52:15.294Z,12.30
2022-12-23T23:54:41.625Z,11.97
2022-12-23T23:57:07.953Z,12.08
2022-12-23T23:59:34.260Z,12.58
